Impacts METAR Board
IDs:

KDTW - Detroit Metro/Wayne, MI, US

Updated at: 0800 UTC 16 Oct 2018
Potential Impact None Slight Moderate High
Time 15/20Z 15/21Z 15/22Z 15/23Z 16/00Z 16/01Z 16/02Z 16/03Z 16/04Z 16/05Z 16/06Z 16/07Z 16/08Z
Temp52 51 48 45 43 41 40 38 37 35 34 34 33
Dewpt32 31 27 25 25 26 26 27 27 27 27 27 27
Altim30.02 30.04 30.07 30.11 30.16 30.19 30.21 30.21 30.22 30.22 30.22 30.23 30.22
VIS10 10 10 10 10 10 10 10 10 10 10 10 10
CIG200 200 -- -- -- -- -- -- -- -- -- -- --
CoverBKNBKNSCTSCTSCTFEWFEWFEWFEWFEWFEWFEWFEW
FltCatVFRVFRVFRVFRVFRVFRVFRVFRVFRVFRVFRVFRVFR
WX--------------------------
WDir2802702802902802802502402200240230180
WSpd18 17 16 13 12 8 7 5 6 0 5 4 4
WGst26 24 27 21 -- -- -- -- -- -- -- -- --
Raw hourly METARs
KDTW 151953Z 28018G26KT 10SM FEW040 BKN200 11/00 A3002 RMK AO2 PK WND 27030/1934 SLP168 T01110000 $
KDTW 152053Z 27017G24KT 10SM FEW040 BKN200 11/M01 A3004 RMK AO2 PK WND 29026/2039 SLP173 T01061006 53015 $
KDTW 152153Z 28016G27KT 10SM FEW040 SCT200 09/M03 A3007 RMK AO2 PK WND 28027/2145 SLP186 T00891028 $
KDTW 152253Z 29013G21KT 10SM FEW045 SCT200 07/M04 A3011 RMK AO2 PK WND 29028/2202 SLP199 T00721039 $
KDTW 152353Z 28012KT 10SM FEW045 SCT200 06/M04 A3016 RMK AO2 SLP214 T00611039 10122 20061 53040 $
KDTW 160053Z 28008KT 10SM FEW200 05/M03 A3019 RMK AO2 SLP225 T00501033 $
KDTW 160153Z 25007KT 10SM FEW200 04/M03 A3021 RMK AO2 SLP233 T00441033 $
KDTW 160253Z 24005KT 10SM FEW200 03/M03 A3021 RMK AO2 SLP234 T00331028 51019 $
KDTW 160353Z 22006KT 10SM FEW200 03/M03 A3022 RMK AO2 SLP237 T00281028 $
KDTW 160453Z 00000KT 10SM FEW200 02/M03 A3022 RMK AO2 SLP238 T00171028 401280017 /
KDTW 160553Z 24005KT 10SM FEW200 01/M03 A3022 RMK AO2 SLP238 T00111028 10061 20011 50003 $
KDTW 160653Z 23004KT 10SM FEW200 01/M03 A3023 RMK AO2 SLP239 T00111028 $
KDTW 160753Z 18004KT 10SM FEW200 01/M03 A3022 RMK AO2 SLP237 T00061028 $



Page loaded:  08:37 UTC  |   01:37 AM Pacific  |   02:37 AM Mountain  |   03:37 AM Central  |   04:37 AM Eastern

 

ADVISORIES

FORECASTS

FORECASTS

OBSERVATIONS

USER TOOLS

ABOUT US